createdAt,value
2018-10-18T00:01:31.327Z,31.90
2018-10-18T00:04:01.642Z,25.47
2018-10-18T00:06:32.580Z,30.70
2018-10-18T00:09:03.588Z,29.20
2018-10-18T00:11:34.264Z,29.53
2018-10-18T00:14:05.333Z,28.67
2018-10-18T00:16:36.065Z,32.97
2018-10-18T00:19:06.687Z,28.87
2018-10-18T00:21:37.584Z,32.07
2018-10-18T00:24:08.672Z,31.60
2018-10-18T00:26:39.432Z,31.27
2018-10-18T00:29:10.016Z,29.03
2018-10-18T00:31:40.617Z,32.47
2018-10-18T00:34:11.234Z,30.17
2018-10-18T00:36:41.887Z,32.13
2018-10-18T00:39:13.785Z,29.47
2018-10-18T00:41:44.380Z,27.93
2018-10-18T00:44:15.283Z,29.17
2018-10-18T00:46:45.981Z,27.90
2018-10-18T00:49:16.563Z,31.10
2018-10-18T00:51:46.891Z,33.20
2018-10-18T00:54:17.499Z,27.53
2018-10-18T00:56:48.059Z,32.00
2018-10-18T00:59:18.690Z,33.60
2018-10-18T01:01:49.256Z,29.83
2018-10-18T01:04:19.911Z,29.93
2018-10-18T01:06:50.491Z,30.43
2018-10-18T01:09:21.088Z,30.90
2018-10-18T01:11:51.653Z,29.23
2018-10-18T01:14:22.464Z,29.73
2018-10-18T01:16:57.888Z,32.07
2018-10-18T01:19:28.935Z,29.10
2018-10-18T01:21:59.547Z,27.80
2018-10-18T01:24:30.141Z,30.20
2018-10-18T01:27:01.079Z,27.60
2018-10-18T01:29:31.744Z,28.43
2018-10-18T01:32:02.399Z,29.03
2018-10-18T01:34:33.136Z,28.43
2018-10-18T01:37:03.784Z,30.60
2018-10-18T01:39:34.403Z,28.33
2018-10-18T01:42:05.962Z,31.10
2018-10-18T01:44:36.671Z,31.47
2018-10-18T01:47:07.357Z,28.30
2018-10-18T01:49:37.963Z,35.07
2018-10-18T01:52:08.555Z,27.70
2018-10-18T01:54:39.178Z,28.20
2018-10-18T01:57:09.766Z,28.37
2018-10-18T01:59:40.535Z,28.43
2018-10-18T02:02:11.423Z,31.67
2018-10-18T02:04:42.131Z,27.83
2018-10-18T02:07:12.815Z,28.40
2018-10-18T02:09:43.355Z,29.70
2018-10-18T02:12:14.022Z,31.43
2018-10-18T02:14:44.762Z,30.37
2018-10-18T02:17:15.393Z,32.03
2018-10-18T02:19:46.004Z,29.37
2018-10-18T02:22:16.588Z,31.90
2018-10-18T02:24:47.612Z,30.33
2018-10-18T02:27:18.185Z,29.77
2018-10-18T02:29:48.955Z,28.73
2018-10-18T02:32:19.559Z,29.97
2018-10-18T02:34:50.133Z,29.30
2018-10-18T02:37:20.752Z,32.83
2018-10-18T02:39:51.336Z,34.07
2018-10-18T02:42:22.119Z,32.90
2018-10-18T02:44:52.728Z,30.33
2018-10-18T02:47:23.682Z,32.83
2018-10-18T02:49:54.500Z,30.57
2018-10-18T02:52:25.324Z,35.63
2018-10-18T02:54:55.907Z,32.67
2018-10-18T02:57:26.479Z,32.27
2018-10-18T02:59:57.102Z,31.77
2018-10-18T03:02:27.835Z,33.30
2018-10-18T03:04:58.503Z,33.63
2018-10-18T03:07:29.096Z,31.37
2018-10-18T03:09:59.671Z,31.30
2018-10-18T03:12:31.336Z,31.03
2018-10-18T03:15:01.942Z,31.20
2018-10-18T03:17:32.551Z,33.73
2018-10-18T03:20:03.141Z,32.97
2018-10-18T03:22:33.763Z,30.83
2018-10-18T03:25:04.457Z,27.67
2018-10-18T03:27:35.095Z,27.20
2018-10-18T03:30:07.167Z,34.50
2018-10-18T03:32:37.873Z,29.27
2018-10-18T03:35:09.502Z,29.33
2018-10-18T03:37:40.424Z,27.20
2018-10-18T03:40:11.331Z,29.73
2018-10-18T03:42:41.929Z,28.77
2018-10-18T03:45:12.519Z,31.33
2018-10-18T03:47:43.060Z,31.30
2018-10-18T03:50:13.671Z,27.57
2018-10-18T03:52:44.252Z,29.73
2018-10-18T03:55:14.848Z,29.40
2018-10-18T03:57:45.419Z,30.73
2018-10-18T04:00:16.065Z,27.97
2018-10-18T04:02:46.815Z,32.90
2018-10-18T04:05:17.396Z,31.20
2018-10-18T04:07:48.018Z,34.50
2018-10-18T04:10:18.599Z,30.80
2018-10-18T04:12:49.284Z,32.50
2018-10-18T04:15:20.000Z,29.30
2018-10-18T04:17:50.623Z,32.47
2018-10-18T04:20:21.439Z,28.57
2018-10-18T04:22:52.276Z,31.03
2018-10-18T04:25:22.908Z,31.60
2018-10-18T04:27:53.723Z,28.57
2018-10-18T04:30:24.348Z,35.30
2018-10-18T04:32:54.933Z,31.17
2018-10-18T04:35:25.527Z,30.13
2018-10-18T04:37:56.230Z,29.93
2018-10-18T04:40:26.855Z,29.60
2018-10-18T04:42:57.416Z,31.30
2018-10-18T04:45:28.240Z,33.50
2018-10-18T04:47:58.956Z,34.17
2018-10-18T04:50:29.654Z,30.07
2018-10-18T04:53:00.235Z,31.13
2018-10-18T04:55:30.847Z,31.00
2018-10-18T04:58:01.448Z,30.60
2018-10-18T05:00:32.057Z,29.47
2018-10-18T05:03:02.832Z,32.30
2018-10-18T05:05:50.568Z,32.00
2018-10-18T05:08:22.200Z,33.00
2018-10-18T05:10:52.846Z,30.27
2018-10-18T05:13:23.503Z,38.00
2018-10-18T05:15:54.246Z,33.47
2018-10-18T05:18:25.077Z,35.30
2018-10-18T05:20:55.694Z,38.60
2018-10-18T05:23:26.303Z,37.73
2018-10-18T05:25:57.288Z,35.93
2018-10-18T05:28:27.880Z,34.20
2018-10-18T05:30:58.517Z,36.93
2018-10-18T05:33:29.300Z,38.83
2018-10-18T05:35:59.955Z,35.73
2018-10-18T05:38:30.820Z,48.57
2018-10-18T05:41:01.638Z,43.83
2018-10-18T05:43:32.252Z,36.13
2018-10-18T05:46:02.837Z,34.90
2018-10-18T05:48:33.675Z,34.13
2018-10-18T05:51:04.261Z,38.97
2018-10-18T05:53:34.976Z,37.43
2018-10-18T05:56:05.676Z,35.03
2018-10-18T05:58:36.298Z,33.30
2018-10-18T06:01:07.944Z,33.30
2018-10-18T06:03:38.664Z,35.70
2018-10-18T06:06:09.308Z,37.40
2018-10-18T06:08:39.894Z,37.20
2018-10-18T06:11:28.131Z,34.50
2018-10-18T06:13:58.750Z,36.17
2018-10-18T06:16:29.550Z,37.23
2018-10-18T06:19:00.256Z,38.53
2018-10-18T06:21:31.082Z,39.70
2018-10-18T06:24:01.843Z,38.10
2018-10-18T06:26:32.423Z,47.43
2018-10-18T06:29:03.069Z,36.50
2018-10-18T06:31:33.873Z,39.40
2018-10-18T06:34:04.540Z,43.20
2018-10-18T06:36:35.148Z,40.93
2018-10-18T06:39:08.772Z,38.93
2018-10-18T06:41:40.427Z,43.43
2018-10-18T06:44:11.042Z,42.50
2018-10-18T06:46:42.082Z,44.50
2018-10-18T06:49:12.988Z,37.47
2018-10-18T06:51:43.707Z,37.90
2018-10-18T06:54:14.313Z,44.10
2018-10-18T06:56:45.295Z,36.40
2018-10-18T06:59:15.904Z,36.17
2018-10-18T07:01:47.054Z,32.63
2018-10-18T07:04:18.619Z,40.87
2018-10-18T07:06:49.477Z,32.73
2018-10-18T07:09:20.094Z,39.27
2018-10-18T07:11:50.707Z,32.97
2018-10-18T07:14:21.304Z,35.87
2018-10-18T07:16:51.926Z,32.03
2018-10-18T07:19:22.517Z,33.33
2018-10-18T07:21:53.515Z,33.67
2018-10-18T07:24:24.107Z,32.90
2018-10-18T07:26:54.709Z,35.50
2018-10-18T07:29:25.359Z,39.20
2018-10-18T07:31:55.950Z,39.43
2018-10-18T07:34:26.815Z,33.87
2018-10-18T07:36:57.399Z,36.80
2018-10-18T07:39:27.999Z,36.70
2018-10-18T07:41:58.634Z,37.63
2018-10-18T07:44:29.420Z,35.43
2018-10-18T07:47:00.086Z,34.47
2018-10-18T07:49:30.839Z,37.60
2018-10-18T07:52:01.436Z,41.33
2018-10-18T07:54:32.091Z,35.77
2018-10-18T07:57:02.667Z,40.00
2018-10-18T07:59:33.302Z,35.40
2018-10-18T08:02:04.238Z,36.23
2018-10-18T08:04:34.896Z,36.10
2018-10-18T08:07:05.939Z,35.47
2018-10-18T08:09:36.796Z,37.30
2018-10-18T08:12:07.444Z,38.37
2018-10-18T08:14:38.064Z,35.30
2018-10-18T08:17:08.667Z,34.33
2018-10-18T08:19:39.243Z,42.43
2018-10-18T08:22:09.871Z,33.60
2018-10-18T08:24:40.631Z,34.00
2018-10-18T08:27:11.706Z,33.43
2018-10-18T08:29:42.380Z,37.47
2018-10-18T08:32:12.962Z,36.83
2018-10-18T08:34:43.761Z,40.67
2018-10-18T08:37:14.389Z,35.17
2018-10-18T08:39:45.387Z,37.10
2018-10-18T08:42:15.977Z,36.47
2018-10-18T08:44:46.621Z,38.03
2018-10-18T08:47:17.203Z,37.37
2018-10-18T08:49:47.978Z,39.50
2018-10-18T08:52:18.800Z,39.53
2018-10-18T08:54:49.983Z,39.60
2018-10-18T08:57:20.652Z,37.53
2018-10-18T08:59:51.452Z,39.73
2018-10-18T09:02:22.086Z,37.60
2018-10-18T09:04:52.874Z,38.50
2018-10-18T09:07:23.517Z,38.73
2018-10-18T09:09:54.100Z,43.07
2018-10-18T09:12:24.905Z,37.00
2018-10-18T09:14:55.502Z,36.93
2018-10-18T09:17:26.100Z,38.57
2018-10-18T09:19:56.693Z,37.83
2018-10-18T09:22:27.319Z,37.60
2018-10-18T09:24:57.935Z,37.77
2018-10-18T09:27:28.943Z,41.83
2018-10-18T09:29:59.522Z,41.37
2018-10-18T09:32:30.248Z,37.93
2018-10-18T09:35:00.844Z,37.50
2018-10-18T09:37:31.431Z,42.33
2018-10-18T09:40:02.046Z,42.33
2018-10-18T09:42:32.672Z,38.83
2018-10-18T09:45:03.364Z,39.53
2018-10-18T09:47:34.103Z,39.00
2018-10-18T09:50:05.239Z,37.63
2018-10-18T09:52:35.856Z,39.20
2018-10-18T09:55:08.481Z,39.67
2018-10-18T09:57:39.287Z,39.13
2018-10-18T10:02:16.827Z,37.17
2018-10-18T10:04:47.468Z,40.03
2018-10-18T10:07:18.104Z,35.60
2018-10-18T10:09:48.765Z,34.57
2018-10-18T10:12:19.615Z,35.70
2018-10-18T10:14:50.517Z,35.57
2018-10-18T10:17:21.183Z,34.47
2018-10-18T10:19:52.028Z,34.57
2018-10-18T10:22:22.616Z,39.30
2018-10-18T10:24:53.257Z,36.50
2018-10-18T10:27:24.097Z,34.43
2018-10-18T10:29:54.699Z,35.73
2018-10-18T10:32:25.355Z,31.90
2018-10-18T10:34:55.963Z,32.93
2018-10-18T10:37:26.770Z,32.17
2018-10-18T10:39:57.420Z,36.80
2018-10-18T10:42:28.199Z,31.90
2018-10-18T10:44:59.507Z,30.83
2018-10-18T10:47:30.482Z,37.40
2018-10-18T10:50:01.069Z,32.07
2018-10-18T10:52:31.869Z,34.57
2018-10-18T10:55:02.953Z,31.60
2018-10-18T10:57:33.583Z,30.70
2018-10-18T11:00:04.255Z,30.93
2018-10-18T11:02:35.060Z,31.30
2018-10-18T11:05:06.784Z,30.00
2018-10-18T11:07:37.490Z,31.80
2018-10-18T11:10:08.391Z,32.37
2018-10-18T11:12:40.308Z,29.33
2018-10-18T11:15:11.357Z,28.10
2018-10-18T11:17:42.126Z,30.77
2018-10-18T11:20:13.012Z,36.63
2018-10-18T11:22:43.758Z,27.80
2018-10-18T11:25:14.535Z,27.13
2018-10-18T11:27:45.158Z,28.90
2018-10-18T11:30:15.806Z,27.70
2018-10-18T11:32:46.535Z,27.40
2018-10-18T11:35:17.148Z,27.03
2018-10-18T11:37:48.064Z,28.87
2018-10-18T11:40:18.665Z,25.70
2018-10-18T11:42:49.633Z,23.70
2018-10-18T11:45:20.370Z,25.07
2018-10-18T11:47:50.992Z,25.83
2018-10-18T11:50:22.060Z,27.35
2018-10-18T11:52:52.854Z,25.00
2018-10-18T11:55:23.668Z,26.53
2018-10-18T11:57:54.296Z,26.43
2018-10-18T12:00:25.452Z,24.45
2018-10-18T12:02:56.088Z,26.23
2018-10-18T12:05:26.728Z,22.93
2018-10-18T12:07:57.546Z,22.47
2018-10-18T12:10:28.341Z,22.60
2018-10-18T12:12:58.944Z,23.93
2018-10-18T12:15:29.574Z,22.23
2018-10-18T12:18:00.176Z,22.27
2018-10-18T12:20:30.801Z,20.80
2018-10-18T12:23:01.462Z,22.00
2018-10-18T12:25:32.212Z,21.13
2018-10-18T12:28:02.893Z,20.37
2018-10-18T12:30:33.489Z,24.33
2018-10-18T12:33:04.113Z,21.57
2018-10-18T12:35:34.754Z,21.70
2018-10-18T12:38:05.900Z,20.37
2018-10-18T12:40:36.632Z,21.47
2018-10-18T12:43:07.411Z,18.90
2018-10-18T12:45:38.014Z,22.17
2018-10-18T12:48:08.828Z,20.00
2018-10-18T12:50:39.572Z,25.33
2018-10-18T12:53:10.148Z,22.30
2018-10-18T12:55:40.793Z,23.10
2018-10-18T12:58:11.381Z,21.07
2018-10-18T13:00:41.007Z,19.70
2018-10-18T13:03:11.436Z,20.27
2018-10-18T13:05:42.043Z,20.77
2018-10-18T13:08:11.762Z,22.20
2018-10-18T13:10:42.344Z,22.00
2018-10-18T13:13:13.005Z,20.17
2018-10-18T13:15:43.595Z,22.17
2018-10-18T13:18:14.422Z,20.10
2018-10-18T13:20:45.163Z,22.30
2018-10-18T13:23:15.752Z,22.07
2018-10-18T13:25:46.380Z,20.87
2018-10-18T13:28:17.076Z,22.80
2018-10-18T13:30:47.721Z,19.10
2018-10-18T13:33:18.305Z,18.50
2018-10-18T13:35:48.916Z,19.27
2018-10-18T13:38:19.509Z,22.33
2018-10-18T13:40:50.168Z,28.90
2018-10-18T13:43:20.968Z,20.17
2018-10-18T13:45:51.615Z,17.70
2018-10-18T13:48:22.242Z,19.20
2018-10-18T13:50:52.556Z,25.43
2018-10-18T13:53:23.416Z,22.33
2018-10-18T13:55:54.058Z,19.87
2018-10-18T13:58:25.147Z,20.03
2018-10-18T14:00:55.749Z,18.40
2018-10-18T14:03:26.437Z,18.73
2018-10-18T14:05:57.043Z,20.70
2018-10-18T14:08:27.778Z,17.03
2018-10-18T14:10:58.549Z,18.90
2018-10-18T14:13:29.314Z,19.83
2018-10-18T14:16:00.132Z,23.47
2018-10-18T14:18:30.765Z,20.60
2018-10-18T14:21:01.375Z,19.40
2018-10-18T14:23:32.151Z,18.70
2018-10-18T14:26:03.036Z,17.90
2018-10-18T14:28:33.826Z,18.93
2018-10-18T14:31:04.587Z,17.67
2018-10-18T14:33:35.248Z,22.90
2018-10-18T14:36:07.132Z,19.67
2018-10-18T14:38:38.111Z,18.23
2018-10-18T14:41:08.924Z,18.97
2018-10-18T14:43:39.698Z,17.40
2018-10-18T14:46:10.453Z,17.50
2018-10-18T14:48:41.142Z,19.47
2018-10-18T14:51:11.795Z,19.60
2018-10-18T14:53:42.398Z,20.17
2018-10-18T14:56:13.113Z,19.33
2018-10-18T14:58:44.082Z,22.03
2018-10-18T15:01:14.756Z,17.90
2018-10-18T15:03:45.392Z,20.90
2018-10-18T15:06:16.327Z,29.07
2018-10-18T15:08:46.702Z,18.40
2018-10-18T15:11:17.683Z,22.73
2018-10-18T15:13:48.484Z,21.17
2018-10-18T15:16:19.154Z,20.73
2018-10-18T15:18:49.866Z,20.60
2018-10-18T15:21:20.428Z,19.30
2018-10-18T15:23:51.166Z,21.73
2018-10-18T15:26:21.856Z,21.60
2018-10-18T15:28:52.661Z,20.50
2018-10-18T15:31:23.467Z,21.37
2018-10-18T15:33:54.071Z,25.23
2018-10-18T15:36:24.788Z,34.60
2018-10-18T15:38:55.589Z,35.17
2018-10-18T15:41:26.264Z,26.50
2018-10-18T15:43:56.909Z,22.93
2018-10-18T15:46:27.682Z,29.00
2018-10-18T15:48:58.274Z,38.33
2018-10-18T15:51:28.924Z,32.87
2018-10-18T15:53:59.557Z,55.07
2018-10-18T15:56:30.487Z,32.97
2018-10-18T15:59:01.220Z,28.40
2018-10-18T16:01:31.958Z,36.33
2018-10-18T16:04:02.566Z,28.37
2018-10-18T16:06:33.235Z,23.80
2018-10-18T16:09:04.551Z,29.63
2018-10-18T16:11:35.215Z,29.67
2018-10-18T16:14:06.380Z,26.73
2018-10-18T16:16:37.150Z,26.97
2018-10-18T16:19:07.555Z,21.63
2018-10-18T16:21:38.219Z,19.47
2018-10-18T16:24:08.897Z,21.60
2018-10-18T16:26:40.053Z,23.33
2018-10-18T16:29:10.934Z,20.43
2018-10-18T16:31:41.766Z,20.37
2018-10-18T16:34:12.381Z,23.40
2018-10-18T16:36:43.003Z,19.73
2018-10-18T16:39:14.596Z,20.83
2018-10-18T16:41:45.254Z,29.17
2018-10-18T16:44:16.180Z,21.67
2018-10-18T16:46:47.303Z,23.63
2018-10-18T16:49:18.156Z,25.27
2018-10-18T16:51:48.776Z,22.17
2018-10-18T16:54:19.476Z,21.27
2018-10-18T16:56:50.279Z,24.93
2018-10-18T16:59:22.173Z,23.70
2018-10-18T17:01:52.900Z,21.80
2018-10-18T17:04:23.874Z,27.13
2018-10-18T17:06:54.588Z,26.60
2018-10-18T17:09:25.481Z,25.60
2018-10-18T17:11:56.324Z,25.60
2018-10-18T17:14:27.772Z,25.17
2018-10-18T17:16:58.439Z,24.90
2018-10-18T17:19:29.376Z,25.20
2018-10-18T17:22:00.024Z,25.20
2018-10-18T17:24:30.871Z,26.10
2018-10-18T17:27:01.572Z,27.93
2018-10-18T17:29:32.359Z,28.17
2018-10-18T17:32:02.982Z,27.70
2018-10-18T17:34:33.851Z,27.67
2018-10-18T17:37:04.804Z,25.60
2018-10-18T17:39:35.427Z,27.00
2018-10-18T17:42:06.476Z,28.77
2018-10-18T17:44:37.272Z,27.80
2018-10-18T17:47:07.986Z,28.93
2018-10-18T17:49:38.806Z,28.03
2018-10-18T17:52:09.457Z,29.60
2018-10-18T17:54:40.211Z,32.87
2018-10-18T17:57:11.102Z,35.00
2018-10-18T17:59:41.770Z,28.47
2018-10-18T18:02:13.259Z,34.80
2018-10-18T18:04:44.012Z,30.20
2018-10-18T18:07:14.930Z,31.97
2018-10-18T18:09:45.822Z,33.00
2018-10-18T18:12:16.763Z,27.13
2018-10-18T18:14:47.347Z,28.53
2018-10-18T18:17:18.012Z,60.03
2018-10-18T18:19:48.659Z,28.90
2018-10-18T18:22:19.345Z,29.03
2018-10-18T18:24:49.987Z,30.97
2018-10-18T18:27:20.642Z,30.27
2018-10-18T18:29:51.352Z,28.43
2018-10-18T18:32:22.000Z,30.33
2018-10-18T18:34:52.576Z,29.83
2018-10-18T18:37:23.233Z,27.43
2018-10-18T18:39:54.015Z,27.90
2018-10-18T18:42:24.731Z,29.87
2018-10-18T18:45:00.501Z,26.77
2018-10-18T18:47:31.449Z,29.67
2018-10-18T18:50:02.243Z,28.33
2018-10-18T18:52:33.019Z,33.40
2018-10-18T18:55:03.690Z,34.80
2018-10-18T18:57:34.340Z,30.70
2018-10-18T19:00:05.410Z,31.80
2018-10-18T19:02:36.346Z,29.33
2018-10-18T19:05:07.891Z,31.87
2018-10-18T19:07:38.625Z,33.70
2018-10-18T19:10:09.888Z,30.07
2018-10-18T19:12:40.564Z,33.30
2018-10-18T19:15:11.350Z,31.73
2018-10-18T19:17:42.120Z,31.53
2018-10-18T19:20:13.289Z,34.07
2018-10-18T19:22:44.044Z,32.33
2018-10-18T19:25:14.928Z,35.97
2018-10-18T19:27:45.521Z,33.70
2018-10-18T19:30:16.662Z,33.57
2018-10-18T19:32:47.327Z,37.83
2018-10-18T19:35:17.944Z,33.83
2018-10-18T19:37:48.649Z,34.73
2018-10-18T19:40:19.502Z,38.57
2018-10-18T19:42:50.132Z,36.20
2018-10-18T19:45:20.783Z,33.77
2018-10-18T19:47:51.470Z,34.07
2018-10-18T19:50:22.124Z,35.10
2018-10-18T19:52:52.759Z,38.93
2018-10-18T19:55:23.527Z,36.33
2018-10-18T19:57:54.258Z,45.77
2018-10-18T20:00:25.049Z,38.30
2018-10-18T20:02:55.676Z,37.37
2018-10-18T20:05:26.299Z,38.00
2018-10-18T20:07:57.093Z,38.97
2018-10-18T20:10:27.810Z,38.13
2018-10-18T20:12:58.676Z,39.63
2018-10-18T20:15:29.493Z,44.00
2018-10-18T20:18:00.160Z,40.97
2018-10-18T20:20:30.956Z,45.10
2018-10-18T20:23:01.588Z,55.10
2018-10-18T20:25:32.435Z,42.13
2018-10-18T20:28:03.273Z,37.40
2018-10-18T20:30:33.901Z,51.03
2018-10-18T20:33:04.871Z,44.90
2018-10-18T20:35:35.711Z,40.50
2018-10-18T20:38:06.720Z,38.60
2018-10-18T20:40:37.421Z,38.20
2018-10-18T20:43:08.307Z,45.50
2018-10-18T20:45:38.915Z,37.87
2018-10-18T20:48:09.729Z,39.20
2018-10-18T20:50:40.778Z,41.33
2018-10-18T20:53:11.508Z,42.13
2018-10-18T20:55:42.213Z,37.27
2018-10-18T20:58:13.089Z,38.40
2018-10-18T21:00:43.705Z,37.60
2018-10-18T21:03:14.430Z,36.27
2018-10-18T21:05:45.216Z,36.67
2018-10-18T21:08:15.815Z,38.73
2018-10-18T21:10:46.484Z,37.43
2018-10-18T21:13:17.154Z,34.73
2018-10-18T21:15:47.823Z,40.77
2018-10-18T21:18:18.668Z,39.10
2018-10-18T21:20:49.307Z,41.60
2018-10-18T21:23:19.974Z,39.87
2018-10-18T21:25:50.563Z,40.43
2018-10-18T21:28:21.227Z,40.43
2018-10-18T21:30:51.843Z,39.67
2018-10-18T21:33:22.464Z,40.83
2018-10-18T21:35:53.073Z,42.30
2018-10-18T21:38:23.881Z,39.13
2018-10-18T21:40:54.501Z,37.37
2018-10-18T21:43:25.551Z,37.40
2018-10-18T21:45:58.031Z,43.17
2018-10-18T21:48:29.772Z,40.33
2018-10-18T21:51:00.395Z,37.40
2018-10-18T21:53:31.187Z,40.70
2018-10-18T21:56:01.826Z,40.53
2018-10-18T21:58:32.450Z,42.50
2018-10-18T22:01:03.075Z,38.73
2018-10-18T22:03:33.726Z,41.13
2018-10-18T22:06:04.359Z,41.00
2018-10-18T22:08:35.000Z,39.17
2018-10-18T22:11:06.210Z,39.40
2018-10-18T22:13:36.979Z,40.20
2018-10-18T22:16:07.643Z,42.37
2018-10-18T22:18:38.315Z,41.53
2018-10-18T22:21:09.009Z,43.43
2018-10-18T22:23:39.756Z,42.10
2018-10-18T22:26:10.605Z,50.93
2018-10-18T22:28:41.170Z,41.30
2018-10-18T22:31:12.079Z,44.50
2018-10-18T22:33:43.015Z,44.33
2018-10-18T22:36:13.636Z,43.57
2018-10-18T22:38:44.688Z,44.80
2018-10-18T22:41:15.403Z,46.90
2018-10-18T22:43:46.112Z,44.40
2018-10-18T22:46:16.796Z,46.00
2018-10-18T22:48:47.435Z,48.47
2018-10-18T22:51:18.107Z,48.97
2018-10-18T22:53:48.716Z,53.23
2018-10-18T22:56:19.292Z,47.60
2018-10-18T22:58:49.858Z,50.43
2018-10-18T23:01:20.539Z,49.90
2018-10-18T23:03:51.103Z,49.37
2018-10-18T23:06:21.762Z,46.97
2018-10-18T23:08:52.432Z,52.60
2018-10-18T23:11:23.232Z,54.27
2018-10-18T23:13:53.917Z,51.93
2018-10-18T23:16:24.562Z,58.70
2018-10-18T23:18:55.209Z,53.30
2018-10-18T23:21:25.837Z,59.27
2018-10-18T23:23:58.120Z,58.40
2018-10-18T23:26:28.819Z,55.27
2018-10-18T23:28:59.424Z,57.97
2018-10-18T23:31:30.242Z,55.80
2018-10-18T23:34:00.911Z,58.27
2018-10-18T23:36:31.757Z,63.07
2018-10-18T23:39:02.340Z,63.03
2018-10-18T23:41:33.170Z,59.00
2018-10-18T23:44:03.792Z,61.23
2018-10-18T23:46:34.739Z,64.80
2018-10-18T23:49:05.524Z,63.43
2018-10-18T23:51:36.134Z,69.40
2018-10-18T23:54:07.012Z,70.70
2018-10-18T23:56:37.633Z,67.77
2018-10-18T23:59:08.449Z,65.43
